Stokesley, United Kingdom
Current Conditions -  °F | °C
As of 9:20 PM on Wednesday 26 Nov 2014 (Local Time) from EGNV Reporting Station
Scattered Clouds Scattered Clouds  
Wind Chill: 40°   Ceiling: Unl
Heat Index: 43°   Visibility: 6mi
Dew Point: 41°   Wind: 5mph
Humidity: 93%   Direction: 360°N
Pressure: 29.8"   Gusts: NA
Location:  54.47°N, 1.19°W
Report Text: EGNV 262120Z 36004KT 9000 FEW011 SCT013 06/05 Q1009
Loading
Personal Weather Stations






























Interactive Weather Map New forecast layout! Learn more

10-Day Weather Forecast

Advertisements
Track Severe Weather on mobile